sensor_id;sensor_type;location;lat;lon;timestamp;P1;durP1;ratioP1;P2;durP2;ratioP2
16073;SDS011;8141;52.664;5.074;2023-10-08T00:00:51;14.97;;;5.27;;
16073;SDS011;8141;52.664;5.074;2023-10-08T00:03:21;13.70;;;6.07;;
16073;SDS011;8141;52.664;5.074;2023-10-08T00:05:47;9.30;;;4.43;;
16073;SDS011;8141;52.664;5.074;2023-10-08T00:08:14;14.67;;;5.73;;
16073;SDS011;8141;52.664;5.074;2023-10-08T00:10:42;12.77;;;5.30;;
16073;SDS011;8141;52.664;5.074;2023-10-08T00:13:12;15.47;;;5.47;;
16073;SDS011;8141;52.664;5.074;2023-10-08T00:15:43;9.73;;;4.60;;
16073;SDS011;8141;52.664;5.074;2023-10-08T00:18:19;11.93;;;5.00;;
16073;SDS011;8141;52.664;5.074;2023-10-08T00:20:47;13.97;;;6.37;;
16073;SDS011;8141;52.664;5.074;2023-10-08T00:23:22;14.47;;;5.23;;
16073;SDS011;8141;52.664;5.074;2023-10-08T00:25:51;21.37;;;6.40;;
16073;SDS011;8141;52.664;5.074;2023-10-08T00:28:19;14.57;;;5.10;;
16073;SDS011;8141;52.664;5.074;2023-10-08T00:30:46;15.43;;;6.03;;
16073;SDS011;8141;52.664;5.074;2023-10-08T00:33:13;17.80;;;6.13;;
16073;SDS011;8141;52.664;5.074;2023-10-08T00:35:40;18.40;;;6.90;;
16073;SDS011;8141;52.664;5.074;2023-10-08T00:38:10;18.97;;;5.97;;
16073;SDS011;8141;52.664;5.074;2023-10-08T00:40:45;15.07;;;5.93;;
16073;SDS011;8141;52.664;5.074;2023-10-08T00:43:33;13.07;;;5.50;;
16073;SDS011;8141;52.664;5.074;2023-10-08T00:46:04;14.70;;;6.13;;
16073;SDS011;8141;52.664;5.074;2023-10-08T00:48:44;16.70;;;5.43;;
16073;SDS011;8141;52.664;5.074;2023-10-08T00:51:11;12.20;;;5.40;;
16073;SDS011;8141;52.664;5.074;2023-10-08T00:54:01;22.60;;;7.07;;
16073;SDS011;8141;52.664;5.074;2023-10-08T00:56:32;16.40;;;5.90;;
16073;SDS011;8141;52.664;5.074;2023-10-08T00:59:12;13.37;;;4.83;;
16073;SDS011;8141;52.664;5.074;2023-10-08T01:01:40;13.60;;;5.67;;
16073;SDS011;8141;52.664;5.074;2023-10-08T01:04:20;10.20;;;3.37;;
16073;SDS011;8141;52.664;5.074;2023-10-08T01:06:56;8.88;;;3.67;;
16073;SDS011;8141;52.664;5.074;2023-10-08T01:09:38;9.67;;;3.37;;
16073;SDS011;8141;52.664;5.074;2023-10-08T01:12:11;13.83;;;4.00;;
16073;SDS011;8141;52.664;5.074;2023-10-08T01:15:02;9.17;;;3.13;;
16073;SDS011;8141;52.664;5.074;2023-10-08T01:20:23;12.43;;;3.17;;
16073;SDS011;8141;52.664;5.074;2023-10-08T01:23:02;8.17;;;3.33;;
16073;SDS011;8141;52.664;5.074;2023-10-08T01:25:29;8.13;;;2.60;;
16073;SDS011;8141;52.664;5.074;2023-10-08T01:27:58;13.37;;;3.27;;
16073;SDS011;8141;52.664;5.074;2023-10-08T01:30:36;7.00;;;2.40;;
16073;SDS011;8141;52.664;5.074;2023-10-08T01:33:06;11.07;;;3.10;;
16073;SDS011;8141;52.664;5.074;2023-10-08T01:35:37;7.07;;;3.00;;
16073;SDS011;8141;52.664;5.074;2023-10-08T01:38:04;8.77;;;2.47;;
16073;SDS011;8141;52.664;5.074;2023-10-08T01:40:31;8.10;;;2.83;;
16073;SDS011;8141;52.664;5.074;2023-10-08T01:42:57;5.87;;;2.33;;
16073;SDS011;8141;52.664;5.074;2023-10-08T01:45:26;7.83;;;2.57;;
16073;SDS011;8141;52.664;5.074;2023-10-08T01:47:52;8.20;;;2.83;;
16073;SDS011;8141;52.664;5.074;2023-10-08T01:50:20;6.60;;;2.80;;
16073;SDS011;8141;52.664;5.074;2023-10-08T01:52:49;5.87;;;2.83;;
16073;SDS011;8141;52.664;5.074;2023-10-08T01:55:18;5.30;;;2.20;;
16073;SDS011;8141;52.664;5.074;2023-10-08T01:57:45;7.27;;;2.73;;
16073;SDS011;8141;52.664;5.074;2023-10-08T02:00:12;4.77;;;2.00;;
16073;SDS011;8141;52.664;5.074;2023-10-08T02:02:48;6.97;;;2.17;;
16073;SDS011;8141;52.664;5.074;2023-10-08T02:05:16;5.23;;;2.27;;
16073;SDS011;8141;52.664;5.074;2023-10-08T02:07:43;3.87;;;2.17;;
16073;SDS011;8141;52.664;5.074;2023-10-08T02:10:10;4.50;;;2.20;;
16073;SDS011;8141;52.664;5.074;2023-10-08T02:12:37;7.20;;;2.20;;
16073;SDS011;8141;52.664;5.074;2023-10-08T02:15:03;4.00;;;2.00;;
16073;SDS011;8141;52.664;5.074;2023-10-08T02:17:31;3.53;;;2.00;;
16073;SDS011;8141;52.664;5.074;2023-10-08T02:19:58;4.27;;;2.40;;
16073;SDS011;8141;52.664;5.074;2023-10-08T02:22:23;3.60;;;1.67;;
16073;SDS011;8141;52.664;5.074;2023-10-08T02:24:49;5.83;;;2.30;;
16073;SDS011;8141;52.664;5.074;2023-10-08T02:27:16;3.00;;;1.80;;
16073;SDS011;8141;52.664;5.074;2023-10-08T02:29:41;2.80;;;1.60;;
16073;SDS011;8141;52.664;5.074;2023-10-08T02:32:07;5.87;;;1.83;;
16073;SDS011;8141;52.664;5.074;2023-10-08T02:34:33;5.80;;;2.13;;
16073;SDS011;8141;52.664;5.074;2023-10-08T02:37:00;2.67;;;1.60;;
16073;SDS011;8141;52.664;5.074;2023-10-08T02:39:28;3.83;;;1.93;;
16073;SDS011;8141;52.664;5.074;2023-10-08T02:41:57;3.03;;;1.40;;
16073;SDS011;8141;52.664;5.074;2023-10-08T02:44:25;2.97;;;1.37;;
16073;SDS011;8141;52.664;5.074;2023-10-08T02:46:51;2.03;;;1.30;;
16073;SDS011;8141;52.664;5.074;2023-10-08T02:49:18;2.50;;;1.50;;
16073;SDS011;8141;52.664;5.074;2023-10-08T02:51:52;1.70;;;1.10;;
16073;SDS011;8141;52.664;5.074;2023-10-08T02:54:20;2.63;;;1.83;;
16073;SDS011;8141;52.664;5.074;2023-10-08T02:56:56;3.70;;;1.50;;
16073;SDS011;8141;52.664;5.074;2023-10-08T02:59:28;3.43;;;1.73;;
16073;SDS011;8141;52.664;5.074;2023-10-08T03:02:09;2.67;;;1.50;;
16073;SDS011;8141;52.664;5.074;2023-10-08T03:04:46;2.67;;;1.33;;
16073;SDS011;8141;52.664;5.074;2023-10-08T03:07:16;2.33;;;1.27;;
16073;SDS011;8141;52.664;5.074;2023-10-08T03:09:58;1.60;;;1.37;;
16073;SDS011;8141;52.664;5.074;2023-10-08T03:12:34;1.43;;;1.07;;
16073;SDS011;8141;52.664;5.074;2023-10-08T03:15:01;2.83;;;1.43;;
16073;SDS011;8141;52.664;5.074;2023-10-08T03:17:40;2.40;;;1.20;;
16073;SDS011;8141;52.664;5.074;2023-10-08T03:20:19;2.17;;;1.47;;
16073;SDS011;8141;52.664;5.074;2023-10-08T03:23:04;2.00;;;1.10;;
16073;SDS011;8141;52.664;5.074;2023-10-08T03:25:50;1.70;;;1.10;;
16073;SDS011;8141;52.664;5.074;2023-10-08T03:28:35;1.60;;;1.40;;
16073;SDS011;8141;52.664;5.074;2023-10-08T03:31:03;1.90;;;0.97;;
16073;SDS011;8141;52.664;5.074;2023-10-08T03:33:34;2.63;;;1.00;;
16073;SDS011;8141;52.664;5.074;2023-10-08T03:36:05;1.30;;;1.20;;
16073;SDS011;8141;52.664;5.074;2023-10-08T03:38:59;1.05;;;0.93;;
16073;SDS011;8141;52.664;5.074;2023-10-08T03:41:34;2.65;;;1.10;;
16073;SDS011;8141;52.664;5.074;2023-10-08T03:44:05;1.23;;;0.90;;
16073;SDS011;8141;52.664;5.074;2023-10-08T03:46:37;2.23;;;1.13;;
16073;SDS011;8141;52.664;5.074;2023-10-08T03:49:06;1.47;;;1.03;;
16073;SDS011;8141;52.664;5.074;2023-10-08T03:51:39;1.20;;;0.93;;
16073;SDS011;8141;52.664;5.074;2023-10-08T03:54:07;1.40;;;1.07;;
16073;SDS011;8141;52.664;5.074;2023-10-08T03:56:35;1.30;;;1.00;;
16073;SDS011;8141;52.664;5.074;2023-10-08T03:59:02;1.37;;;1.00;;
16073;SDS011;8141;52.664;5.074;2023-10-08T04:02:01;2.57;;;0.93;;
16073;SDS011;8141;52.664;5.074;2023-10-08T04:04:47;1.70;;;0.98;;
16073;SDS011;8141;52.664;5.074;2023-10-08T04:07:22;1.20;;;0.70;;
16073;SDS011;8141;52.664;5.074;2023-10-08T04:09:50;3.50;;;1.30;;
16073;SDS011;8141;52.664;5.074;2023-10-08T04:12:30;1.30;;;0.90;;
16073;SDS011;8141;52.664;5.074;2023-10-08T04:14:59;1.83;;;1.30;;
16073;SDS011;8141;52.664;5.074;2023-10-08T04:17:32;1.77;;;1.10;;
16073;SDS011;8141;52.664;5.074;2023-10-08T04:20:08;1.02;;;0.70;;
16073;SDS011;8141;52.664;5.074;2023-10-08T04:22:58;1.67;;;1.10;;
16073;SDS011;8141;52.664;5.074;2023-10-08T04:25:30;2.00;;;1.07;;
16073;SDS011;8141;52.664;5.074;2023-10-08T04:28:00;1.10;;;0.90;;
16073;SDS011;8141;52.664;5.074;2023-10-08T04:30:27;1.13;;;0.87;;
16073;SDS011;8141;52.664;5.074;2023-10-08T04:33:02;1.00;;;0.73;;
16073;SDS011;8141;52.664;5.074;2023-10-08T04:35:36;1.13;;;0.80;;
16073;SDS011;8141;52.664;5.074;2023-10-08T04:38:15;0.97;;;0.90;;
16073;SDS011;8141;52.664;5.074;2023-10-08T04:40:44;0.80;;;0.77;;
16073;SDS011;8141;52.664;5.074;2023-10-08T04:43:19;1.53;;;0.70;;
16073;SDS011;8141;52.664;5.074;2023-10-08T04:45:53;0.93;;;0.70;;
16073;SDS011;8141;52.664;5.074;2023-10-08T04:48:25;0.70;;;0.70;;
16073;SDS011;8141;52.664;5.074;2023-10-08T04:50:56;0.60;;;0.60;;
16073;SDS011;8141;52.664;5.074;2023-10-08T04:53:25;2.23;;;1.00;;
16073;SDS011;8141;52.664;5.074;2023-10-08T04:56:01;0.82;;;0.80;;
16073;SDS011;8141;52.664;5.074;2023-10-08T04:58:38;1.00;;;0.70;;
16073;SDS011;8141;52.664;5.074;2023-10-08T05:01:11;1.50;;;0.87;;
16073;SDS011;8141;52.664;5.074;2023-10-08T05:06:39;0.73;;;0.60;;
16073;SDS011;8141;52.664;5.074;2023-10-08T05:09:15;0.97;;;0.50;;
16073;SDS011;8141;52.664;5.074;2023-10-08T05:11:45;1.30;;;0.57;;
16073;SDS011;8141;52.664;5.074;2023-10-08T05:14:15;0.90;;;0.53;;
16073;SDS011;8141;52.664;5.074;2023-10-08T05:16:57;0.73;;;0.63;;
16073;SDS011;8141;52.664;5.074;2023-10-08T05:19:50;1.20;;;0.70;;
16073;SDS011;8141;52.664;5.074;2023-10-08T05:22:36;1.50;;;0.67;;
16073;SDS011;8141;52.664;5.074;2023-10-08T05:25:01;0.77;;;0.60;;
16073;SDS011;8141;52.664;5.074;2023-10-08T05:27:36;0.70;;;0.50;;
16073;SDS011;8141;52.664;5.074;2023-10-08T05:30:26;1.10;;;0.67;;
16073;SDS011;8141;52.664;5.074;2023-10-08T05:33:02;0.40;;;0.40;;
16073;SDS011;8141;52.664;5.074;2023-10-08T05:35:41;1.43;;;0.60;;
16073;SDS011;8141;52.664;5.074;2023-10-08T05:38:07;0.90;;;0.80;;
16073;SDS011;8141;52.664;5.074;2023-10-08T05:40:53;0.60;;;0.50;;
16073;SDS011;8141;52.664;5.074;2023-10-08T05:43:21;0.33;;;0.33;;
16073;SDS011;8141;52.664;5.074;2023-10-08T05:46:07;1.17;;;0.83;;
16073;SDS011;8141;52.664;5.074;2023-10-08T05:48:46;0.47;;;0.40;;
16073;SDS011;8141;52.664;5.074;2023-10-08T05:51:35;0.98;;;0.50;;
16073;SDS011;8141;52.664;5.074;2023-10-08T05:54:12;0.63;;;0.60;;
16073;SDS011;8141;52.664;5.074;2023-10-08T05:57:01;1.03;;;0.70;;
16073;SDS011;8141;52.664;5.074;2023-10-08T05:59:31;3.23;;;0.73;;
16073;SDS011;8141;52.664;5.074;2023-10-08T06:02:28;0.63;;;0.63;;
16073;SDS011;8141;52.664;5.074;2023-10-08T06:04:58;0.50;;;0.50;;
16073;SDS011;8141;52.664;5.074;2023-10-08T06:07:37;0.53;;;0.53;;
16073;SDS011;8141;52.664;5.074;2023-10-08T06:10:17;1.07;;;0.50;;
16073;SDS011;8141;52.664;5.074;2023-10-08T06:12:59;1.20;;;0.80;;
16073;SDS011;8141;52.664;5.074;2023-10-08T06:18:28;0.40;;;0.40;;
16073;SDS011;8141;52.664;5.074;2023-10-08T06:20:57;0.65;;;0.60;;
16073;SDS011;8141;52.664;5.074;2023-10-08T06:23:33;1.00;;;0.67;;
16073;SDS011;8141;52.664;5.074;2023-10-08T06:26:02;0.93;;;0.70;;
16073;SDS011;8141;52.664;5.074;2023-10-08T06:28:43;1.50;;;0.63;;
16073;SDS011;8141;52.664;5.074;2023-10-08T06:31:10;0.93;;;0.60;;
16073;SDS011;8141;52.664;5.074;2023-10-08T06:33:39;1.03;;;0.60;;
16073;SDS011;8141;52.664;5.074;2023-10-08T06:36:06;1.50;;;0.60;;
16073;SDS011;8141;52.664;5.074;2023-10-08T06:38:38;0.50;;;0.40;;
16073;SDS011;8141;52.664;5.074;2023-10-08T06:41:09;0.60;;;0.37;;
16073;SDS011;8141;52.664;5.074;2023-10-08T06:43:40;0.30;;;0.30;;
16073;SDS011;8141;52.664;5.074;2023-10-08T06:46:15;0.60;;;0.40;;
16073;SDS011;8141;52.664;5.074;2023-10-08T06:48:44;0.40;;;0.40;;
16073;SDS011;8141;52.664;5.074;2023-10-08T06:51:11;0.43;;;0.30;;
16073;SDS011;8141;52.664;5.074;2023-10-08T06:53:43;0.87;;;0.40;;
16073;SDS011;8141;52.664;5.074;2023-10-08T06:56:14;1.03;;;0.50;;
16073;SDS011;8141;52.664;5.074;2023-10-08T06:58:41;0.50;;;0.47;;
16073;SDS011;8141;52.664;5.074;2023-10-08T07:01:17;0.50;;;0.30;;
16073;SDS011;8141;52.664;5.074;2023-10-08T07:03:46;0.60;;;0.30;;
16073;SDS011;8141;52.664;5.074;2023-10-08T07:06:17;2.53;;;0.40;;
16073;SDS011;8141;52.664;5.074;2023-10-08T07:08:56;0.57;;;0.33;;
16073;SDS011;8141;52.664;5.074;2023-10-08T07:11:24;0.37;;;0.30;;
16073;SDS011;8141;52.664;5.074;2023-10-08T07:13:54;0.47;;;0.40;;
16073;SDS011;8141;52.664;5.074;2023-10-08T07:16:21;0.40;;;0.30;;
16073;SDS011;8141;52.664;5.074;2023-10-08T07:18:47;1.37;;;0.50;;
16073;SDS011;8141;52.664;5.074;2023-10-08T07:21:17;0.67;;;0.43;;
16073;SDS011;8141;52.664;5.074;2023-10-08T07:23:44;0.50;;;0.40;;
16073;SDS011;8141;52.664;5.074;2023-10-08T07:26:28;0.83;;;0.40;;
16073;SDS011;8141;52.664;5.074;2023-10-08T07:29:11;0.57;;;0.40;;
16073;SDS011;8141;52.664;5.074;2023-10-08T07:31:42;0.57;;;0.40;;
16073;SDS011;8141;52.664;5.074;2023-10-08T07:34:14;0.60;;;0.40;;
16073;SDS011;8141;52.664;5.074;2023-10-08T07:36:42;0.40;;;0.40;;
16073;SDS011;8141;52.664;5.074;2023-10-08T07:39:13;2.37;;;0.67;;
16073;SDS011;8141;52.664;5.074;2023-10-08T07:41:59;0.40;;;0.38;;
16073;SDS011;8141;52.664;5.074;2023-10-08T07:44:30;0.60;;;0.40;;
16073;SDS011;8141;52.664;5.074;2023-10-08T07:46:56;1.53;;;0.60;;
16073;SDS011;8141;52.664;5.074;2023-10-08T07:49:23;4.30;;;0.70;;
16073;SDS011;8141;52.664;5.074;2023-10-08T07:51:50;2.50;;;0.80;;
16073;SDS011;8141;52.664;5.074;2023-10-08T07:54:23;5.73;;;1.07;;
16073;SDS011;8141;52.664;5.074;2023-10-08T07:56:52;3.57;;;0.87;;
16073;SDS011;8141;52.664;5.074;2023-10-08T07:59:25;6.07;;;1.27;;
16073;SDS011;8141;52.664;5.074;2023-10-08T08:01:51;5.17;;;0.80;;
16073;SDS011;8141;52.664;5.074;2023-10-08T08:04:18;3.87;;;0.93;;
16073;SDS011;8141;52.664;5.074;2023-10-08T08:06:51;4.63;;;1.50;;
16073;SDS011;8141;52.664;5.074;2023-10-08T08:09:17;4.43;;;1.13;;
16073;SDS011;8141;52.664;5.074;2023-10-08T08:11:45;5.20;;;1.23;;
16073;SDS011;8141;52.664;5.074;2023-10-08T08:14:14;5.10;;;1.27;;
16073;SDS011;8141;52.664;5.074;2023-10-08T08:16:49;13.20;;;2.93;;
16073;SDS011;8141;52.664;5.074;2023-10-08T08:19:15;17.00;;;2.50;;
16073;SDS011;8141;52.664;5.074;2023-10-08T08:21:45;14.30;;;2.20;;
16073;SDS011;8141;52.664;5.074;2023-10-08T08:24:14;9.03;;;1.67;;
16073;SDS011;8141;52.664;5.074;2023-10-08T08:26:54;3.60;;;1.30;;
16073;SDS011;8141;52.664;5.074;2023-10-08T08:29:32;4.63;;;1.20;;
16073;SDS011;8141;52.664;5.074;2023-10-08T08:32:09;5.30;;;1.30;;
16073;SDS011;8141;52.664;5.074;2023-10-08T08:34:40;6.90;;;1.33;;
16073;SDS011;8141;52.664;5.074;2023-10-08T08:37:09;6.43;;;1.20;;
16073;SDS011;8141;52.664;5.074;2023-10-08T08:39:37;6.87;;;1.40;;
16073;SDS011;8141;52.664;5.074;2023-10-08T08:42:06;5.07;;;1.37;;
16073;SDS011;8141;52.664;5.074;2023-10-08T08:44:34;7.20;;;1.53;;
16073;SDS011;8141;52.664;5.074;2023-10-08T08:47:04;4.33;;;1.13;;
16073;SDS011;8141;52.664;5.074;2023-10-08T08:49:35;6.73;;;1.50;;
16073;SDS011;8141;52.664;5.074;2023-10-08T08:52:02;7.07;;;1.27;;
16073;SDS011;8141;52.664;5.074;2023-10-08T08:54:29;9.93;;;1.03;;
16073;SDS011;8141;52.664;5.074;2023-10-08T08:56:55;6.50;;;1.23;;
16073;SDS011;8141;52.664;5.074;2023-10-08T08:59:31;3.78;;;1.02;;
16073;SDS011;8141;52.664;5.074;2023-10-08T09:02:01;4.17;;;0.90;;
16073;SDS011;8141;52.664;5.074;2023-10-08T09:04:32;6.10;;;1.50;;
16073;SDS011;8141;52.664;5.074;2023-10-08T09:07:01;7.57;;;2.03;;
16073;SDS011;8141;52.664;5.074;2023-10-08T09:09:33;4.13;;;1.00;;
16073;SDS011;8141;52.664;5.074;2023-10-08T09:12:06;4.07;;;1.13;;
16073;SDS011;8141;52.664;5.074;2023-10-08T09:14:35;5.20;;;1.13;;
16073;SDS011;8141;52.664;5.074;2023-10-08T09:17:03;6.03;;;1.10;;
16073;SDS011;8141;52.664;5.074;2023-10-08T09:19:30;5.67;;;1.30;;
16073;SDS011;8141;52.664;5.074;2023-10-08T09:22:03;7.10;;;1.40;;
16073;SDS011;8141;52.664;5.074;2023-10-08T09:24:34;6.90;;;1.33;;
16073;SDS011;8141;52.664;5.074;2023-10-08T09:27:06;10.10;;;1.73;;
16073;SDS011;8141;52.664;5.074;2023-10-08T09:29:34;6.80;;;1.50;;
16073;SDS011;8141;52.664;5.074;2023-10-08T09:32:08;4.70;;;1.20;;
16073;SDS011;8141;52.664;5.074;2023-10-08T09:34:48;11.93;;;2.23;;
16073;SDS011;8141;52.664;5.074;2023-10-08T09:37:16;5.67;;;1.37;;
16073;SDS011;8141;52.664;5.074;2023-10-08T09:39:42;7.27;;;1.50;;
16073;SDS011;8141;52.664;5.074;2023-10-08T09:42:11;5.47;;;1.30;;
16073;SDS011;8141;52.664;5.074;2023-10-08T09:44:39;6.23;;;1.00;;
16073;SDS011;8141;52.664;5.074;2023-10-08T09:47:05;6.57;;;1.60;;
16073;SDS011;8141;52.664;5.074;2023-10-08T09:49:40;6.23;;;1.37;;
16073;SDS011;8141;52.664;5.074;2023-10-08T09:52:35;5.23;;;1.20;;
16073;SDS011;8141;52.664;5.074;2023-10-08T09:55:21;4.43;;;1.30;;
16073;SDS011;8141;52.664;5.074;2023-10-08T09:57:48;5.33;;;1.10;;
16073;SDS011;8141;52.664;5.074;2023-10-08T10:00:16;3.83;;;0.80;;
16073;SDS011;8141;52.664;5.074;2023-10-08T10:02:44;4.87;;;1.30;;
16073;SDS011;8141;52.664;5.074;2023-10-08T10:05:10;7.90;;;1.53;;
16073;SDS011;8141;52.664;5.074;2023-10-08T10:07:37;7.80;;;1.50;;
16073;SDS011;8141;52.664;5.074;2023-10-08T10:10:27;5.70;;;1.30;;
16073;SDS011;8141;52.664;5.074;2023-10-08T10:13:06;9.57;;;1.83;;
16073;SDS011;8141;52.664;5.074;2023-10-08T10:15:39;7.10;;;1.30;;
16073;SDS011;8141;52.664;5.074;2023-10-08T10:18:08;5.60;;;1.40;;
16073;SDS011;8141;52.664;5.074;2023-10-08T10:20:45;10.80;;;1.47;;
16073;SDS011;8141;52.664;5.074;2023-10-08T10:26:05;8.30;;;1.80;;
16073;SDS011;8141;52.664;5.074;2023-10-08T10:34:14;4.60;;;1.33;;
16073;SDS011;8141;52.664;5.074;2023-10-08T10:36:48;6.63;;;1.60;;
16073;SDS011;8141;52.664;5.074;2023-10-08T10:39:20;7.17;;;1.67;;
16073;SDS011;8141;52.664;5.074;2023-10-08T10:41:56;9.00;;;1.67;;
16073;SDS011;8141;52.664;5.074;2023-10-08T10:44:26;5.63;;;1.57;;
16073;SDS011;8141;52.664;5.074;2023-10-08T10:46:56;3.97;;;1.33;;
16073;SDS011;8141;52.664;5.074;2023-10-08T10:49:42;7.30;;;1.35;;
16073;SDS011;8141;52.664;5.074;2023-10-08T10:52:14;5.63;;;1.43;;
16073;SDS011;8141;52.664;5.074;2023-10-08T10:54:56;5.90;;;1.33;;
16073;SDS011;8141;52.664;5.074;2023-10-08T10:57:44;3.43;;;1.00;;
16073;SDS011;8141;52.664;5.074;2023-10-08T11:00:21;6.13;;;1.47;;
16073;SDS011;8141;52.664;5.074;2023-10-08T11:02:58;4.57;;;1.17;;
16073;SDS011;8141;52.664;5.074;2023-10-08T11:05:30;5.00;;;1.20;;
16073;SDS011;8141;52.664;5.074;2023-10-08T11:08:07;6.87;;;1.30;;
16073;SDS011;8141;52.664;5.074;2023-10-08T11:10:34;9.23;;;1.43;;
16073;SDS011;8141;52.664;5.074;2023-10-08T11:13:14;9.33;;;1.43;;
16073;SDS011;8141;52.664;5.074;2023-10-08T11:15:42;6.03;;;1.90;;
16073;SDS011;8141;52.664;5.074;2023-10-08T11:18:23;7.28;;;1.55;;
16073;SDS011;8141;52.664;5.074;2023-10-08T11:20:52;7.78;;;1.20;;
16073;SDS011;8141;52.664;5.074;2023-10-08T11:23:45;7.25;;;1.55;;
16073;SDS011;8141;52.664;5.074;2023-10-08T11:26:18;4.20;;;1.00;;
16073;SDS011;8141;52.664;5.074;2023-10-08T11:28:58;5.87;;;1.60;;
16073;SDS011;8141;52.664;5.074;2023-10-08T11:31:28;6.77;;;1.60;;
16073;SDS011;8141;52.664;5.074;2023-10-08T11:34:01;2.87;;;1.27;;
16073;SDS011;8141;52.664;5.074;2023-10-08T11:36:35;4.80;;;1.10;;
16073;SDS011;8141;52.664;5.074;2023-10-08T11:39:14;6.20;;;1.80;;
16073;SDS011;8141;52.664;5.074;2023-10-08T11:42:02;8.10;;;1.80;;
16073;SDS011;8141;52.664;5.074;2023-10-08T11:44:32;3.43;;;1.23;;
16073;SDS011;8141;52.664;5.074;2023-10-08T11:47:04;5.53;;;1.57;;
16073;SDS011;8141;52.664;5.074;2023-10-08T11:49:37;5.50;;;1.17;;
16073;SDS011;8141;52.664;5.074;2023-10-08T11:52:11;5.93;;;1.13;;
16073;SDS011;8141;52.664;5.074;2023-10-08T11:54:40;4.30;;;1.13;;
16073;SDS011;8141;52.664;5.074;2023-10-08T11:57:07;6.73;;;1.40;;
16073;SDS011;8141;52.664;5.074;2023-10-08T11:59:34;4.43;;;1.23;;
16073;SDS011;8141;52.664;5.074;2023-10-08T12:02:04;4.80;;;1.57;;
16073;SDS011;8141;52.664;5.074;2023-10-08T12:04:33;5.47;;;1.50;;
16073;SDS011;8141;52.664;5.074;2023-10-08T12:07:01;3.80;;;1.10;;
16073;SDS011;8141;52.664;5.074;2023-10-08T12:09:32;5.27;;;1.43;;
16073;SDS011;8141;52.664;5.074;2023-10-08T12:12:03;4.70;;;1.20;;
16073;SDS011;8141;52.664;5.074;2023-10-08T12:14:34;5.47;;;1.60;;
16073;SDS011;8141;52.664;5.074;2023-10-08T12:17:02;7.27;;;2.00;;
16073;SDS011;8141;52.664;5.074;2023-10-08T12:19:36;7.50;;;1.10;;
16073;SDS011;8141;52.664;5.074;2023-10-08T12:22:05;7.03;;;1.07;;
16073;SDS011;8141;52.664;5.074;2023-10-08T12:24:32;4.07;;;1.13;;
16073;SDS011;8141;52.664;5.074;2023-10-08T12:26:58;5.97;;;1.10;;
16073;SDS011;8141;52.664;5.074;2023-10-08T12:29:24;3.50;;;0.90;;
16073;SDS011;8141;52.664;5.074;2023-10-08T12:31:51;4.13;;;1.20;;
16073;SDS011;8141;52.664;5.074;2023-10-08T12:34:18;3.80;;;1.30;;
16073;SDS011;8141;52.664;5.074;2023-10-08T12:36:44;3.77;;;1.37;;
16073;SDS011;8141;52.664;5.074;2023-10-08T12:39:13;5.00;;;1.40;;
16073;SDS011;8141;52.664;5.074;2023-10-08T12:41:41;2.53;;;0.90;;
16073;SDS011;8141;52.664;5.074;2023-10-08T12:44:09;3.73;;;0.90;;
16073;SDS011;8141;52.664;5.074;2023-10-08T12:46:35;4.47;;;0.90;;
16073;SDS011;8141;52.664;5.074;2023-10-08T12:49:01;4.43;;;1.00;;
16073;SDS011;8141;52.664;5.074;2023-10-08T12:51:28;5.80;;;1.47;;
16073;SDS011;8141;52.664;5.074;2023-10-08T12:53:58;4.20;;;1.00;;
16073;SDS011;8141;52.664;5.074;2023-10-08T12:56:29;4.77;;;1.00;;
16073;SDS011;8141;52.664;5.074;2023-10-08T12:59:03;4.73;;;1.10;;
16073;SDS011;8141;52.664;5.074;2023-10-08T13:01:31;3.73;;;0.97;;
16073;SDS011;8141;52.664;5.074;2023-10-08T13:03:57;3.50;;;1.07;;
16073;SDS011;8141;52.664;5.074;2023-10-08T13:06:26;4.67;;;1.23;;
16073;SDS011;8141;52.664;5.074;2023-10-08T13:08:56;5.60;;;1.03;;
16073;SDS011;8141;52.664;5.074;2023-10-08T13:11:24;4.03;;;1.10;;
16073;SDS011;8141;52.664;5.074;2023-10-08T13:13:55;2.37;;;1.00;;
16073;SDS011;8141;52.664;5.074;2023-10-08T13:16:22;8.27;;;1.87;;
16073;SDS011;8141;52.664;5.074;2023-10-08T13:19:02;4.43;;;1.10;;
16073;SDS011;8141;52.664;5.074;2023-10-08T13:21:29;2.37;;;1.10;;
16073;SDS011;8141;52.664;5.074;2023-10-08T13:23:56;4.67;;;1.60;;
16073;SDS011;8141;52.664;5.074;2023-10-08T13:26:24;9.57;;;1.50;;
16073;SDS011;8141;52.664;5.074;2023-10-08T13:28:56;13.13;;;1.97;;
16073;SDS011;8141;52.664;5.074;2023-10-08T13:31:25;5.47;;;1.70;;
16073;SDS011;8141;52.664;5.074;2023-10-08T13:33:52;4.40;;;1.23;;
16073;SDS011;8141;52.664;5.074;2023-10-08T13:36:21;4.10;;;1.00;;
16073;SDS011;8141;52.664;5.074;2023-10-08T13:38:48;3.00;;;1.53;;
16073;SDS011;8141;52.664;5.074;2023-10-08T13:41:15;4.77;;;1.27;;
16073;SDS011;8141;52.664;5.074;2023-10-08T13:43:45;4.50;;;1.10;;
16073;SDS011;8141;52.664;5.074;2023-10-08T13:46:17;3.87;;;1.20;;
16073;SDS011;8141;52.664;5.074;2023-10-08T13:48:47;4.07;;;1.43;;
16073;SDS011;8141;52.664;5.074;2023-10-08T13:51:17;2.60;;;0.73;;
16073;SDS011;8141;52.664;5.074;2023-10-08T13:53:52;6.00;;;1.47;;
16073;SDS011;8141;52.664;5.074;2023-10-08T13:56:40;3.87;;;1.27;;
16073;SDS011;8141;52.664;5.074;2023-10-08T13:59:12;4.20;;;1.33;;
16073;SDS011;8141;52.664;5.074;2023-10-08T14:01:42;3.97;;;1.00;;
16073;SDS011;8141;52.664;5.074;2023-10-08T14:04:16;4.03;;;1.67;;
16073;SDS011;8141;52.664;5.074;2023-10-08T14:06:44;3.30;;;0.90;;
16073;SDS011;8141;52.664;5.074;2023-10-08T14:09:17;3.03;;;0.93;;
16073;SDS011;8141;52.664;5.074;2023-10-08T14:11:52;3.37;;;0.93;;
16073;SDS011;8141;52.664;5.074;2023-10-08T14:14:18;5.90;;;1.77;;
16073;SDS011;8141;52.664;5.074;2023-10-08T14:16:45;3.13;;;0.90;;
16073;SDS011;8141;52.664;5.074;2023-10-08T14:19:17;3.87;;;0.97;;
16073;SDS011;8141;52.664;5.074;2023-10-08T14:21:43;2.60;;;0.90;;
16073;SDS011;8141;52.664;5.074;2023-10-08T14:24:17;3.57;;;0.97;;
16073;SDS011;8141;52.664;5.074;2023-10-08T14:26:44;4.37;;;0.87;;
16073;SDS011;8141;52.664;5.074;2023-10-08T14:29:16;1.90;;;0.73;;
16073;SDS011;8141;52.664;5.074;2023-10-08T14:31:42;3.80;;;0.90;;
16073;SDS011;8141;52.664;5.074;2023-10-08T14:34:13;4.07;;;0.90;;
16073;SDS011;8141;52.664;5.074;2023-10-08T14:36:46;1.93;;;0.90;;
16073;SDS011;8141;52.664;5.074;2023-10-08T14:39:33;1.53;;;0.90;;
16073;SDS011;8141;52.664;5.074;2023-10-08T14:42:18;2.87;;;0.90;;
16073;SDS011;8141;52.664;5.074;2023-10-08T14:45:03;4.20;;;0.80;;
16073;SDS011;8141;52.664;5.074;2023-10-08T14:47:36;3.40;;;0.80;;
16073;SDS011;8141;52.664;5.074;2023-10-08T14:50:03;3.33;;;0.70;;
16073;SDS011;8141;52.664;5.074;2023-10-08T14:52:30;2.57;;;0.90;;
16073;SDS011;8141;52.664;5.074;2023-10-08T14:54:58;2.27;;;0.90;;
16073;SDS011;8141;52.664;5.074;2023-10-08T14:57:24;3.30;;;0.90;;
16073;SDS011;8141;52.664;5.074;2023-10-08T14:59:51;1.93;;;0.83;;
16073;SDS011;8141;52.664;5.074;2023-10-08T15:02:17;4.93;;;1.10;;
16073;SDS011;8141;52.664;5.074;2023-10-08T15:04:43;3.90;;;1.10;;
16073;SDS011;8141;52.664;5.074;2023-10-08T15:07:09;2.90;;;0.80;;
16073;SDS011;8141;52.664;5.074;2023-10-08T15:09:36;1.73;;;0.70;;
16073;SDS011;8141;52.664;5.074;2023-10-08T15:12:04;3.73;;;0.97;;
16073;SDS011;8141;52.664;5.074;2023-10-08T15:14:34;2.60;;;0.73;;
16073;SDS011;8141;52.664;5.074;2023-10-08T15:17:00;4.90;;;0.80;;
16073;SDS011;8141;52.664;5.074;2023-10-08T15:19:26;3.13;;;0.70;;
16073;SDS011;8141;52.664;5.074;2023-10-08T15:21:52;5.60;;;1.30;;
16073;SDS011;8141;52.664;5.074;2023-10-08T15:24:18;3.27;;;1.00;;
16073;SDS011;8141;52.664;5.074;2023-10-08T15:26:48;4.10;;;1.00;;
16073;SDS011;8141;52.664;5.074;2023-10-08T15:29:19;5.27;;;1.00;;
16073;SDS011;8141;52.664;5.074;2023-10-08T15:31:47;8.13;;;1.63;;
16073;SDS011;8141;52.664;5.074;2023-10-08T15:34:14;7.40;;;2.30;;
16073;SDS011;8141;52.664;5.074;2023-10-08T15:36:40;8.37;;;1.90;;
16073;SDS011;8141;52.664;5.074;2023-10-08T15:39:06;7.40;;;2.20;;
16073;SDS011;8141;52.664;5.074;2023-10-08T15:41:37;8.63;;;2.20;;
16073;SDS011;8141;52.664;5.074;2023-10-08T15:44:03;11.13;;;2.23;;
16073;SDS011;8141;52.664;5.074;2023-10-08T15:46:32;6.27;;;1.97;;